createdAt,value
2019-02-10T00:01:54.080Z,61.59
2019-02-10T00:04:26.541Z,61.61
2019-02-10T00:07:00.936Z,61.78
2019-02-10T00:09:34.961Z,61.84
2019-02-10T00:12:07.553Z,61.93
2019-02-10T00:14:40.028Z,62.00
2019-02-10T00:17:12.582Z,61.94
2019-02-10T00:19:45.040Z,61.94
2019-02-10T00:22:17.372Z,61.89
2019-02-10T00:24:49.656Z,61.92
2019-02-10T00:27:21.999Z,61.92
2019-02-10T00:29:54.460Z,61.99
2019-02-10T00:32:26.959Z,62.13
2019-02-10T00:34:59.316Z,62.24
2019-02-10T00:37:31.725Z,62.46
2019-02-10T00:40:04.664Z,62.57
2019-02-10T00:42:36.929Z,62.53
2019-02-10T00:45:09.425Z,62.64
2019-02-10T00:47:41.841Z,62.71
2019-02-10T00:50:16.772Z,62.81
2019-02-10T00:52:52.386Z,62.78
2019-02-10T00:55:24.929Z,62.78
2019-02-10T00:57:57.274Z,62.98
2019-02-10T01:00:29.729Z,62.98
2019-02-10T01:03:02.103Z,63.10
2019-02-10T01:05:34.442Z,63.14
2019-02-10T01:08:06.741Z,63.22
2019-02-10T01:10:39.084Z,63.36
2019-02-10T01:13:11.422Z,63.59
2019-02-10T01:15:43.768Z,63.73
2019-02-10T01:18:15.984Z,63.74
2019-02-10T01:20:48.335Z,63.90
2019-02-10T01:23:20.707Z,63.99
2019-02-10T01:25:53.043Z,63.85
2019-02-10T01:28:25.319Z,63.85
2019-02-10T01:30:57.809Z,63.90
2019-02-10T01:33:30.077Z,64.04
2019-02-10T01:36:02.361Z,64.03
2019-02-10T01:38:34.622Z,64.02
2019-02-10T01:41:06.916Z,63.94
2019-02-10T01:43:39.246Z,63.97
2019-02-10T01:46:11.689Z,64.04
2019-02-10T01:48:44.035Z,64.09
2019-02-10T01:51:16.413Z,64.10
2019-02-10T01:53:48.744Z,64.12
2019-02-10T01:56:20.991Z,64.18
2019-02-10T01:58:53.282Z,64.23
2019-02-10T02:01:25.548Z,64.19
2019-02-10T02:03:57.792Z,64.15
2019-02-10T02:06:30.080Z,64.09
2019-02-10T02:09:03.983Z,63.92
2019-02-10T02:11:37.242Z,63.83
2019-02-10T02:14:09.557Z,63.88
2019-02-10T02:16:41.985Z,63.99
2019-02-10T02:19:14.397Z,63.94
2019-02-10T02:21:46.728Z,63.99
2019-02-10T02:24:19.069Z,64.09
2019-02-10T02:26:51.316Z,64.03
2019-02-10T02:29:23.606Z,64.04
2019-02-10T02:31:56.422Z,63.92
2019-02-10T02:34:28.690Z,63.88
2019-02-10T02:37:07.692Z,63.98
2019-02-10T02:39:35.113Z,64.20
2019-02-10T02:42:07.412Z,64.31
2019-02-10T02:44:39.930Z,64.21
2019-02-10T02:47:12.193Z,64.45
2019-02-10T02:49:44.473Z,64.56
2019-02-10T02:52:16.733Z,64.60
2019-02-10T02:54:49.052Z,64.63
2019-02-10T02:57:21.275Z,64.72
2019-02-10T02:59:53.716Z,64.81
2019-02-10T03:02:26.049Z,64.86
2019-02-10T03:04:58.454Z,64.94
2019-02-10T03:07:30.716Z,65.11
2019-02-10T03:10:02.956Z,65.29
2019-02-10T03:12:35.476Z,65.30
2019-02-10T03:15:08.238Z,65.39
2019-02-10T03:17:41.648Z,65.39
2019-02-10T03:20:13.915Z,65.57
2019-02-10T03:22:47.207Z,65.70
2019-02-10T03:25:19.442Z,65.74
2019-02-10T03:27:51.801Z,65.97
2019-02-10T03:30:24.172Z,66.01
2019-02-10T03:32:56.495Z,65.91
2019-02-10T03:35:28.787Z,65.94
2019-02-10T03:38:01.083Z,65.77
2019-02-10T03:40:34.487Z,65.48
2019-02-10T03:43:06.871Z,65.84
2019-02-10T03:45:39.176Z,65.56
2019-02-10T03:48:11.451Z,65.61
2019-02-10T03:50:43.709Z,65.34
2019-02-10T03:53:16.155Z,65.43
2019-02-10T03:55:48.562Z,65.21
2019-02-10T03:58:20.912Z,65.34
2019-02-10T04:00:53.161Z,65.03
2019-02-10T04:03:25.452Z,65.44
2019-02-10T04:05:57.914Z,65.50
2019-02-10T04:08:30.193Z,65.83
2019-02-10T04:11:02.448Z,66.08
2019-02-10T04:13:34.677Z,66.10
2019-02-10T04:16:06.937Z,66.29
2019-02-10T04:18:39.205Z,66.00
2019-02-10T04:21:11.531Z,65.74
2019-02-10T04:23:43.803Z,65.51
2019-02-10T04:26:16.099Z,66.39
2019-02-10T04:28:48.423Z,65.89
2019-02-10T04:31:20.751Z,65.91
2019-02-10T04:33:53.277Z,66.17
2019-02-10T04:36:25.652Z,66.01
2019-02-10T04:38:58.605Z,66.04
2019-02-10T04:41:30.879Z,66.54
2019-02-10T04:44:03.219Z,66.87
2019-02-10T04:46:35.549Z,67.06
2019-02-10T04:49:07.990Z,66.97
2019-02-10T04:51:40.485Z,66.66
2019-02-10T04:54:14.125Z,66.38
2019-02-10T04:56:46.404Z,66.64
2019-02-10T04:59:18.662Z,66.54
2019-02-10T05:01:51.023Z,66.75
2019-02-10T05:04:23.327Z,66.19
2019-02-10T05:06:55.713Z,67.39
2019-02-10T05:09:28.018Z,67.27
2019-02-10T05:12:00.266Z,66.74
2019-02-10T05:14:32.630Z,67.52
2019-02-10T05:17:04.924Z,66.86
2019-02-10T05:19:37.324Z,67.04
2019-02-10T05:22:12.628Z,67.17
2019-02-10T05:24:44.868Z,67.21
2019-02-10T05:27:17.102Z,67.27
2019-02-10T05:29:50.522Z,66.97
2019-02-10T05:32:22.792Z,66.84
2019-02-10T05:34:55.037Z,66.96
2019-02-10T05:37:27.335Z,67.17
2019-02-10T05:39:59.595Z,67.34
2019-02-10T05:42:31.931Z,67.52
2019-02-10T05:45:04.180Z,67.94
2019-02-10T05:47:36.550Z,68.34
2019-02-10T05:50:09.085Z,68.37
2019-02-10T05:52:41.465Z,68.08
2019-02-10T05:55:14.928Z,68.07
2019-02-10T05:57:48.480Z,68.08
2019-02-10T06:00:29.635Z,68.28
2019-02-10T06:03:01.868Z,68.08
2019-02-10T06:05:34.276Z,68.01
2019-02-10T06:08:13.137Z,68.03
2019-02-10T06:10:40.522Z,68.07
2019-02-10T06:13:12.841Z,67.83
2019-02-10T06:15:45.161Z,67.69
2019-02-10T06:18:17.473Z,67.50
2019-02-10T06:20:49.964Z,67.40
2019-02-10T06:23:22.366Z,67.42
2019-02-10T06:25:54.837Z,67.33
2019-02-10T06:28:27.438Z,67.25
2019-02-10T06:30:59.822Z,67.21
2019-02-10T06:33:32.183Z,67.08
2019-02-10T06:36:07.302Z,66.88
2019-02-10T06:38:39.841Z,66.83
2019-02-10T06:41:12.246Z,66.91
2019-02-10T06:43:44.518Z,66.85
2019-02-10T06:46:16.836Z,66.79
2019-02-10T06:48:49.325Z,66.74
2019-02-10T06:51:21.711Z,66.49
2019-02-10T06:53:54.209Z,66.50
2019-02-10T06:56:29.367Z,66.54
2019-02-10T06:59:01.665Z,66.38
2019-02-10T07:01:37.140Z,66.15
2019-02-10T07:04:21.695Z,66.49
2019-02-10T07:06:54.228Z,66.32
2019-02-10T07:09:28.176Z,66.46
2019-02-10T07:12:19.468Z,66.20
2019-02-10T07:14:51.719Z,66.00
2019-02-10T07:17:59.866Z,65.80
2019-02-10T07:20:42.887Z,65.68
2019-02-10T07:24:07.611Z,65.66
2019-02-10T07:27:08.101Z,65.38
2019-02-10T07:30:24.427Z,65.26
2019-02-10T07:32:56.844Z,65.12
2019-02-10T07:35:56.036Z,64.92
2019-02-10T07:38:54.522Z,64.83
2019-02-10T07:42:13.586Z,64.56
2019-02-10T07:45:23.283Z,64.44
2019-02-10T07:48:48.433Z,64.09
2019-02-10T07:52:07.153Z,63.76
2019-02-10T07:55:22.005Z,63.49
2019-02-10T07:58:25.156Z,63.22
2019-02-10T08:01:26.504Z,62.87
2019-02-10T08:04:46.526Z,62.77
2019-02-10T08:07:39.180Z,62.27
2019-02-10T08:10:55.637Z,61.83
2019-02-10T08:13:55.877Z,61.64
2019-02-10T08:16:57.787Z,60.96
2019-02-10T08:19:52.056Z,60.83
2019-02-10T08:23:01.219Z,60.55
2019-02-10T08:26:15.492Z,60.22
2019-02-10T08:29:17.431Z,59.90
2019-02-10T08:32:30.575Z,60.04
2019-02-10T08:36:14.304Z,59.84
2019-02-10T08:39:17.109Z,59.54
2019-02-10T08:42:42.275Z,59.51
2019-02-10T08:45:52.668Z,59.64
2019-02-10T08:49:05.639Z,59.27
2019-02-10T08:52:08.768Z,59.25
2019-02-10T08:54:41.150Z,59.21
2019-02-10T08:57:13.504Z,59.25
2019-02-10T08:59:47.334Z,59.09
2019-02-10T09:02:20.063Z,59.01
2019-02-10T09:04:52.440Z,58.99
2019-02-10T09:07:24.813Z,59.02
2019-02-10T09:09:57.714Z,58.60
2019-02-10T09:12:29.990Z,58.73
2019-02-10T09:15:02.374Z,58.76
2019-02-10T09:17:34.991Z,58.76
2019-02-10T09:20:10.003Z,58.14
2019-02-10T09:22:42.281Z,57.96
2019-02-10T09:25:14.741Z,57.90
2019-02-10T09:27:47.115Z,57.16
2019-02-10T09:30:19.444Z,56.67
2019-02-10T09:32:51.865Z,56.25
2019-02-10T09:35:24.136Z,55.86
2019-02-10T09:37:56.482Z,56.02
2019-02-10T09:40:29.127Z,54.97
2019-02-10T09:43:01.403Z,54.90
2019-02-10T09:45:33.725Z,54.27
2019-02-10T09:48:29.225Z,54.35
2019-02-10T09:51:02.247Z,54.11
2019-02-10T09:53:35.089Z,54.41
2019-02-10T09:56:20.321Z,54.13
2019-02-10T09:58:55.971Z,54.59
2019-02-10T10:01:28.142Z,53.90
2019-02-10T10:04:00.463Z,53.70
2019-02-10T10:06:33.180Z,53.90
2019-02-10T10:09:07.710Z,53.88
2019-02-10T10:11:42.920Z,53.91
2019-02-10T10:14:15.449Z,53.77
2019-02-10T10:16:47.823Z,54.20
2019-02-10T10:19:20.635Z,53.56
2019-02-10T10:21:58.509Z,53.18
2019-02-10T10:24:31.335Z,53.11
2019-02-10T10:27:05.397Z,53.51
2019-02-10T10:29:40.356Z,53.29
2019-02-10T10:32:13.066Z,53.41
2019-02-10T10:34:47.083Z,53.90
2019-02-10T10:37:19.462Z,54.20
2019-02-10T10:39:51.852Z,53.74
2019-02-10T10:42:27.401Z,54.76
2019-02-10T10:45:09.029Z,54.73
2019-02-10T10:47:49.538Z,55.00
2019-02-10T10:50:22.429Z,55.46
2019-02-10T10:52:58.680Z,55.76
2019-02-10T10:55:42.159Z,55.81
2019-02-10T10:58:14.772Z,55.86
2019-02-10T11:00:49.807Z,56.02
2019-02-10T11:03:22.766Z,55.79
2019-02-10T11:05:59.572Z,55.93
2019-02-10T11:08:33.737Z,56.04
2019-02-10T11:11:07.344Z,56.04
2019-02-10T11:13:39.817Z,55.72
2019-02-10T11:16:12.328Z,55.47
2019-02-10T11:18:44.676Z,55.12
2019-02-10T11:21:16.977Z,54.63
2019-02-10T11:23:49.349Z,53.16
2019-02-10T11:26:21.702Z,51.93
2019-02-10T11:28:55.781Z,50.36
2019-02-10T11:31:28.153Z,49.54
2019-02-10T11:34:00.539Z,48.37
2019-02-10T11:36:32.923Z,47.86
2019-02-10T11:39:06.522Z,46.88
2019-02-10T11:41:39.335Z,47.14
2019-02-10T11:44:14.908Z,48.16
2019-02-10T11:46:47.475Z,48.34
2019-02-10T11:49:19.853Z,49.02
2019-02-10T11:51:52.651Z,49.24
2019-02-10T11:54:25.520Z,49.88
2019-02-10T11:57:02.832Z,48.96
2019-02-10T11:59:39.491Z,49.33
2019-02-10T12:02:12.132Z,49.63
2019-02-10T12:04:49.084Z,49.65
2019-02-10T12:07:21.536Z,50.14
2019-02-10T12:09:56.988Z,50.61
2019-02-10T12:12:29.543Z,49.99
2019-02-10T12:15:10.619Z,50.42
2019-02-10T12:18:18.826Z,50.23
2019-02-10T12:21:04.049Z,50.96
2019-02-10T12:23:38.211Z,50.44
2019-02-10T12:26:21.236Z,51.08
2019-02-10T12:29:05.422Z,51.30
2019-02-10T12:31:43.367Z,51.47
2019-02-10T12:34:20.489Z,51.95
2019-02-10T12:36:53.173Z,51.48
2019-02-10T12:39:31.431Z,51.74
2019-02-10T12:42:05.321Z,51.92
2019-02-10T12:44:40.916Z,51.71
2019-02-10T12:47:16.120Z,51.82
2019-02-10T12:49:50.136Z,52.21
2019-02-10T12:52:50.710Z,52.29
2019-02-10T12:55:27.452Z,52.30
2019-02-10T12:58:00.496Z,52.38
2019-02-10T13:00:43.890Z,52.17
2019-02-10T13:03:19.623Z,52.20
2019-02-10T13:06:01.169Z,52.09
2019-02-10T13:08:41.541Z,52.03
2019-02-10T13:11:17.549Z,51.92
2019-02-10T13:13:58.125Z,51.88
2019-02-10T13:16:34.735Z,52.14
2019-02-10T13:19:11.797Z,51.78
2019-02-10T13:21:45.033Z,51.77
2019-02-10T13:24:20.898Z,51.29
2019-02-10T13:26:58.526Z,51.20
2019-02-10T13:29:36.487Z,51.04
2019-02-10T13:32:12.729Z,50.69
2019-02-10T13:34:45.283Z,51.26
2019-02-10T13:37:18.003Z,50.69
2019-02-10T13:39:53.518Z,51.19
2019-02-10T13:42:25.989Z,51.56
2019-02-10T13:44:58.575Z,51.45
2019-02-10T13:47:31.129Z,51.42
2019-02-10T13:50:03.597Z,51.51
2019-02-10T13:52:36.479Z,51.58
2019-02-10T13:55:11.171Z,51.19
2019-02-10T13:57:43.698Z,51.61
2019-02-10T14:00:18.475Z,51.74
2019-02-10T14:02:51.468Z,51.80
2019-02-10T14:05:29.420Z,51.54
2019-02-10T14:08:11.484Z,51.95
2019-02-10T14:10:50.065Z,52.09
2019-02-10T14:13:24.885Z,52.14
2019-02-10T14:16:02.533Z,51.94
2019-02-10T14:18:36.825Z,52.00
2019-02-10T14:21:09.149Z,52.12
2019-02-10T14:23:41.698Z,51.71
2019-02-10T14:26:15.271Z,51.97
2019-02-10T14:28:50.434Z,52.17
2019-02-10T14:31:26.074Z,52.36
2019-02-10T14:34:01.308Z,52.07
2019-02-10T14:36:39.159Z,52.43
2019-02-10T14:39:15.915Z,52.33
2019-02-10T14:41:53.180Z,51.96
2019-02-10T14:44:26.155Z,52.42
2019-02-10T14:47:33.665Z,52.98
2019-02-10T14:50:08.139Z,52.95
2019-02-10T14:52:47.488Z,53.17
2019-02-10T14:55:25.111Z,53.32
2019-02-10T14:58:03.176Z,53.13
2019-02-10T15:00:35.732Z,53.59
2019-02-10T15:03:08.185Z,53.04
2019-02-10T15:05:41.660Z,53.17
2019-02-10T15:08:16.637Z,53.26
2019-02-10T15:10:51.538Z,53.30
2019-02-10T15:13:24.078Z,53.35
2019-02-10T15:15:56.570Z,53.37
2019-02-10T15:18:32.091Z,53.43
2019-02-10T15:21:14.190Z,53.52
2019-02-10T15:23:49.511Z,53.55
2019-02-10T15:26:26.755Z,54.13
2019-02-10T15:29:05.817Z,54.00
2019-02-10T15:31:54.827Z,54.77
2019-02-10T15:34:29.013Z,56.16
2019-02-10T15:37:01.629Z,55.71
2019-02-10T15:39:34.552Z,56.30
2019-02-10T15:42:09.797Z,56.04
2019-02-10T15:44:42.305Z,55.71
2019-02-10T15:47:14.889Z,55.89
2019-02-10T15:49:47.304Z,57.08
2019-02-10T15:52:19.665Z,57.09
2019-02-10T15:54:51.999Z,57.68
2019-02-10T15:57:24.552Z,58.64
2019-02-10T15:59:57.021Z,58.93
2019-02-10T16:02:29.423Z,58.60
2019-02-10T16:05:01.959Z,58.75
2019-02-10T16:07:36.014Z,59.40
2019-02-10T16:10:09.556Z,59.21
2019-02-10T16:12:41.963Z,59.69
2019-02-10T16:15:14.363Z,60.34
2019-02-10T16:17:46.722Z,60.62
2019-02-10T16:20:19.025Z,60.86
2019-02-10T16:22:51.543Z,61.65
2019-02-10T16:25:25.079Z,61.18
2019-02-10T16:27:57.877Z,61.98
2019-02-10T16:30:31.797Z,61.16
2019-02-10T16:33:04.243Z,62.31
2019-02-10T16:35:36.633Z,61.91
2019-02-10T16:38:09.019Z,62.70
2019-02-10T16:40:41.504Z,63.41
2019-02-10T16:43:14.004Z,62.74
2019-02-10T16:45:46.465Z,63.25
2019-02-10T16:48:18.812Z,63.13
2019-02-10T16:50:53.778Z,62.15
2019-02-10T16:53:26.250Z,61.91
2019-02-10T16:55:58.650Z,61.94
2019-02-10T16:58:31.106Z,61.83
2019-02-10T17:01:04.722Z,61.56
2019-02-10T17:03:38.742Z,61.48
2019-02-10T17:06:14.391Z,61.27
2019-02-10T17:08:48.971Z,61.66
2019-02-10T17:11:21.480Z,61.70
2019-02-10T17:13:54.472Z,61.59
2019-02-10T17:16:30.127Z,61.92
2019-02-10T17:19:02.755Z,62.57
2019-02-10T17:21:35.920Z,63.52
2019-02-10T17:24:08.474Z,63.19
2019-02-10T17:26:40.980Z,63.52
2019-02-10T17:29:13.453Z,63.83
2019-02-10T17:31:46.124Z,64.77
2019-02-10T17:34:18.710Z,65.07
2019-02-10T17:36:51.012Z,64.27
2019-02-10T17:39:24.994Z,64.44
2019-02-10T17:41:57.845Z,63.52
2019-02-10T17:44:30.737Z,62.88
2019-02-10T17:47:03.432Z,62.97
2019-02-10T17:49:36.183Z,63.21
2019-02-10T17:52:09.545Z,63.38
2019-02-10T17:54:42.211Z,62.46
2019-02-10T17:57:14.726Z,62.57
2019-02-10T17:59:49.823Z,63.35
2019-02-10T18:02:22.338Z,62.82
2019-02-10T18:04:54.851Z,63.07
2019-02-10T18:07:27.418Z,62.62
2019-02-10T18:10:00.067Z,63.18
2019-02-10T18:12:32.571Z,63.30
2019-02-10T18:15:25.135Z,63.08
2019-02-10T18:18:19.457Z,63.04
2019-02-10T18:21:16.344Z,63.27
2019-02-10T18:24:05.467Z,63.68
2019-02-10T18:27:00.013Z,62.33
2019-02-10T18:29:42.343Z,62.62
2019-02-10T18:32:36.385Z,63.19
2019-02-10T18:35:21.773Z,62.53
2019-02-10T18:38:21.993Z,63.20
2019-02-10T18:41:06.347Z,62.22
2019-02-10T18:44:06.806Z,61.96
2019-02-10T18:47:02.577Z,62.83
2019-02-10T18:50:00.152Z,62.14
2019-02-10T18:52:49.151Z,62.47
2019-02-10T18:55:34.523Z,62.94
2019-02-10T18:58:25.538Z,62.73
2019-02-10T19:01:29.326Z,63.00
2019-02-10T19:04:33.062Z,63.17
2019-02-10T19:07:24.813Z,62.92
2019-02-10T19:10:16.198Z,63.26
2019-02-10T19:13:13.585Z,62.74
2019-02-10T19:16:05.027Z,63.13
2019-02-10T19:18:53.967Z,62.61
2019-02-10T19:21:45.429Z,62.50
2019-02-10T19:24:35.728Z,62.24
2019-02-10T19:27:32.648Z,61.67
2019-02-10T19:30:24.700Z,61.20
2019-02-10T19:33:15.227Z,60.70
2019-02-10T19:35:59.041Z,60.33
2019-02-10T19:38:53.621Z,60.08
2019-02-10T19:41:32.750Z,60.26
2019-02-10T19:44:36.583Z,60.14
2019-02-10T19:47:35.275Z,59.98
2019-02-10T19:50:29.238Z,60.06
2019-02-10T19:53:20.556Z,60.51
2019-02-10T19:56:18.152Z,59.93
2019-02-10T19:59:07.830Z,59.73
2019-02-10T20:02:05.380Z,60.46
2019-02-10T20:05:02.915Z,59.65
2019-02-10T20:07:54.047Z,60.14
2019-02-10T20:10:45.375Z,59.94
2019-02-10T20:13:26.184Z,59.84
2019-02-10T20:16:06.710Z,59.74
2019-02-10T20:19:03.892Z,59.44
2019-02-10T20:22:07.414Z,58.87
2019-02-10T20:25:02.766Z,58.85
2019-02-10T20:27:53.378Z,59.34
2019-02-10T20:30:57.006Z,59.33
2019-02-10T20:33:48.459Z,59.09
2019-02-10T20:36:59.450Z,59.38
2019-02-10T20:39:41.450Z,59.02
2019-02-10T20:42:22.278Z,59.39
2019-02-10T20:45:25.159Z,59.29
2019-02-10T20:48:13.067Z,59.39
2019-02-10T20:50:56.770Z,59.27
2019-02-10T20:53:46.900Z,59.32
2019-02-10T20:56:44.423Z,59.66
2019-02-10T20:59:37.375Z,59.96
2019-02-10T21:02:28.744Z,59.97
2019-02-10T21:05:20.054Z,60.15
2019-02-10T21:08:18.766Z,59.91
2019-02-10T21:11:10.249Z,59.93
2019-02-10T21:14:00.939Z,60.43
2019-02-10T21:16:50.997Z,60.34
2019-02-10T21:19:43.146Z,60.16
2019-02-10T21:22:35.622Z,60.47
2019-02-10T21:25:18.550Z,60.78
2019-02-10T21:28:08.720Z,60.80
2019-02-10T21:30:55.976Z,60.74
2019-02-10T21:33:50.250Z,61.08
2019-02-10T21:36:34.816Z,61.12
2019-02-10T21:39:17.443Z,61.20
2019-02-10T21:42:16.687Z,61.22
2019-02-10T21:45:10.840Z,61.52
2019-02-10T21:47:50.182Z,61.62
2019-02-10T21:50:22.544Z,61.61
2019-02-10T21:52:54.891Z,61.88
2019-02-10T21:55:29.620Z,61.93
2019-02-10T21:58:03.097Z,61.93
2019-02-10T22:00:35.586Z,62.03
2019-02-10T22:03:08.001Z,62.26
2019-02-10T22:05:40.490Z,62.29
2019-02-10T22:08:12.902Z,62.30
2019-02-10T22:10:45.317Z,62.12
2019-02-10T22:13:20.811Z,62.23
2019-02-10T22:16:00.018Z,62.51
2019-02-10T22:18:32.702Z,62.57
2019-02-10T22:21:14.478Z,62.63
2019-02-10T22:23:53.986Z,62.75
2019-02-10T22:26:44.188Z,62.75
2019-02-10T22:29:14.248Z,62.77
2019-02-10T22:31:49.413Z,62.72
2019-02-10T22:34:22.903Z,63.01
2019-02-10T22:36:55.432Z,62.81
2019-02-10T22:39:27.893Z,62.94
2019-02-10T22:42:27.552Z,62.88
2019-02-10T22:45:10.579Z,62.86
2019-02-10T22:47:44.504Z,62.77
2019-02-10T22:50:21.437Z,62.72
2019-02-10T22:53:07.450Z,62.72
2019-02-10T22:55:41.517Z,62.77
2019-02-10T22:58:18.381Z,62.78
2019-02-10T23:01:10.639Z,62.94
2019-02-10T23:03:46.778Z,63.07
2019-02-10T23:06:20.854Z,63.08
2019-02-10T23:08:54.388Z,62.94
2019-02-10T23:11:30.921Z,62.95
2019-02-10T23:14:03.507Z,62.68
2019-02-10T23:16:39.847Z,62.88
2019-02-10T23:19:14.570Z,62.72
2019-02-10T23:21:46.968Z,62.81
2019-02-10T23:27:12.012Z,62.85
2019-02-10T23:29:44.620Z,62.79
2019-02-10T23:32:22.761Z,62.90
2019-02-10T23:34:58.257Z,63.00
2019-02-10T23:38:03.548Z,62.84
2019-02-10T23:40:58.417Z,62.72
2019-02-10T23:43:27.096Z,62.82
2019-02-10T23:46:01.339Z,62.98
2019-02-10T23:48:33.751Z,63.01
2019-02-10T23:51:06.180Z,63.03
2019-02-10T23:53:38.630Z,63.09
2019-02-10T23:56:15.703Z,63.06
2019-02-10T23:58:48.088Z,63.05
